OEDF/DMM METAR and TAF weather

Enter ICAO airport designator
Station Type Date Time Source
OEDF METAR 2021/10/22 19:00 UTC NOAA

OEDF 221900Z 30006KT CAVOK 24/13 Q1015 NOSIG


Station Type Date Time Source
OEDF Decoded METAR 2021/10/22 19:00 UTC NOAA

Dammam-King Fahd International Airport, Saudi Arabia (OEDF) 26-28N 049-47E
Oct 22, 2021 - 03:00 PM EDT / 2021.10.22 1900 UTC
Wind: from the WNW (300 degrees) at 7 MPH (6 KT):0
Visibility: greater than 7 mile(s):0
Temperature: 75 F (24 C)
Dew Point: 55 F (13 C)
Relative Humidity: 50%
Pressure (altimeter): 29.97 in. Hg (1015 hPa)
ob: OEDF 221900Z 30006KT CAVOK 24/13 Q1015 NOSIG
cycle: 19

Station Type Date Time Source
OEDF TAF 2021/10/22 18:33 UTC NOAA

TAF TAF OEDF 221445Z 2218/2324 30008KT CAVOK
BECMG 2306/2308 04008KT

Example: see airport list